EHEH Airport Information

Runway Information
Runway 03 Length 9843 ft width 148 ft
Elevation 73 ft Threshold 821 ft Heading 35
Runway 21 Length 9843 ft Width 148 ft
Elevation 67 ft Threshold 821 ft Heading 215
Airport Frequencies
Type APP Name APP Frequency 123.175 MHZ
Type ATIS Name ATIS Frequency 126.025 MHZ
Type DIR Name DIRECTOR Frequency 124.525 MHZ
Type GND Name GND Frequency 121.925 MHZ
Type TWR Name TWR Frequency 131 MHZ
Airport Navaids
Type NDB Name Eindhoven Frequency 397 KHZ
Type TACAN Name Eindhoven Frequency 117200 KHZ
Airport Weather Information & NOTAM
ADDS - METARS form results

(2006 UTC 17 October 2021)
Data provider http://aviationweather.gov/metar/data/
 
METAR text: EHEH 171955Z AUTO 19003KT 140V230 9999 SCT070 BKN079 OVC090 10/08 Q1021 BLU NOSIG
Conditions at: EHEH (EINDHOVEN RNLAFB, NL) observed 1955 UTC 17 October 2021
Temperature: 10.0°C (50°F)
Dewpoint: 8.0°C (46°F) [RH = 87%]
Pressure (altimeter): 30.15 inches Hg (1021.0 mb)
Winds: from the S (190 degrees) at 3 MPH (3 knots; 1.5 m/s)
Visibility: 6 or more miles (10+ km)
Ceiling: 7900 feet AGL
Clouds: scattered clouds at 7000 feet AGL
broken clouds at 7900 feet AGL
overcast cloud deck at 9000 feet AGL
Weather: no significant weather observed at this time

METAR text: EHEH 171925Z AUTO VRB01KT 9999 FEW015CB BKN077 OVC084 11/08 Q1021 BLU NOSIG
Conditions at: EHEH (EINDHOVEN RNLAFB, NL) observed 1925 UTC 17 October 2021
Temperature: 11.0°C (52°F)
Dewpoint: 8.0°C (46°F) [RH = 82%]
Pressure (altimeter): 30.15 inches Hg (1021.0 mb)
Winds: variable direction winds at 1 MPH (1 knots; 0.5 m/s)
Visibility: 6 or more miles (10+ km)
Ceiling: 7700 feet AGL
Clouds: few clouds at 1500 feet AGL
broken clouds at 7700 feet AGL
overcast cloud deck at 8400 feet AGL
Weather: no significant weather observed at this time

Forecast for: EHEH (EINDHOVEN RNLAFB, NL)
Text: TAF EHEH 171726Z 1718/1824 17005KT CAVOK
Forecast period: 1800 UTC 17 October 2021 to 0000 UTC 19 October 2021
Forecast type: FROM: standard forecast or significant change
Winds: from the S (170 degrees) at 6 MPH (5 knots; 2.6 m/s)
Visibility: 6 or more miles (10+ km)
Ceiling: unknown
Clouds: missing
Weather: NSW  (no significant weather)